Time;durP1;ratioP1;P1;durP2;ratioP2;P2;SDS_P1;SDS_P2;PMS_P1;PMS_P2;Temp;Humidity;BMP_temperature;BMP_pressure;BME280_temperature;BME280_humidity;BME280_pressure;Samples;Min_cycle;Max_cycle;Signal;HPM_P1;HPM_P2
2022/06/21 00:02:35;;;;;;;4.13;1.88;;;14.10;99.90;;;;;;12354441;28;20088;-81
2022/06/21 00:08:37;;;;;;;4.88;2.10;;;14.00;99.90;;;;;;12363712;28;20050;-80
2022/06/21 00:14:40;;;;;;;7.40;1.90;;;13.90;99.90;;;;;;12351088;28;20050;-80
2022/06/21 00:20:42;;;;;;;7.15;2.00;;;13.80;99.90;;;;;;12355107;28;20491;-81
2022/06/21 00:26:45;;;;;;;6.30;1.77;;;13.70;99.90;;;;;;12349268;28;20042;-81
2022/06/21 00:32:50;;;;;;;5.63;1.75;;;13.80;99.90;;;;;;12352250;28;20388;-81
2022/06/21 00:38:53;;;;;;;6.35;1.83;;;13.60;99.90;;;;;;12350281;28;20050;-81
2022/06/21 00:45:11;;;;;;;7.70;2.13;;;13.60;99.90;;;;;;12362307;28;20556;-81
2022/06/21 00:51:25;;;;;;;3.85;1.77;;;13.60;99.90;;;;;;12349648;28;20139;-80
2022/06/21 00:57:36;;;;;;;11.00;2.05;;;13.40;99.90;;;;;;12360337;28;20054;-81
2022/06/21 01:03:42;;;;;;;8.77;1.70;;;13.30;99.90;;;;;;12371734;28;20125;-81
2022/06/21 01:10:07;;;;;;;9.05;1.83;;;13.30;99.90;;;;;;12372618;28;20047;-81
2022/06/21 01:16:09;;;;;;;4.45;1.85;;;13.30;99.90;;;;;;12374536;28;20054;-81
2022/06/21 01:22:24;;;;;;;4.22;1.60;;;13.20;99.90;;;;;;12368073;28;20039;-81
2022/06/21 01:28:27;;;;;;;3.42;1.48;;;13.10;99.90;;;;;;12384171;28;20046;-80
2022/06/21 01:34:29;;;;;;;6.63;1.60;;;12.90;99.90;;;;;;12372860;28;21898;-80
2022/06/21 01:40:35;;;;;;;9.07;2.10;;;12.80;99.90;;;;;;12370926;28;20646;-81
2022/06/21 01:46:37;;;;;;;6.40;1.88;;;12.80;99.90;;;;;;12355524;28;20051;-80
2022/06/21 01:52:45;;;;;;;6.68;1.90;;;12.70;99.90;;;;;;12360288;28;20038;-80
2022/06/21 01:58:52;;;;;;;7.55;1.95;;;12.80;99.90;;;;;;12373891;28;20097;-80
2022/06/21 02:05:04;;;;;;;9.55;2.03;;;12.80;99.90;;;;;;12366957;28;20046;-81
2022/06/21 02:11:14;;;;;;;8.52;1.80;;;12.70;99.90;;;;;;12381511;28;20050;-80
2022/06/21 02:17:32;;;;;;;4.43;1.80;;;12.70;99.90;;;;;;12370823;28;20058;-81
2022/06/21 02:23:34;;;;;;;5.03;1.20;;;12.70;99.90;;;;;;12368510;28;20461;-81
2022/06/21 02:29:36;;;;;;;4.82;1.67;;;12.70;99.90;;;;;;12363695;28;20050;-80
2022/06/21 02:36:00;;;;;;;7.70;1.60;;;12.60;99.90;;;;;;12369899;28;20043;-81
2022/06/21 02:42:24;;;;;;;7.88;1.95;;;12.50;99.90;;;;;;12358716;28;20100;-80
2022/06/21 02:48:35;;;;;;;6.72;1.83;;;12.50;99.90;;;;;;12359761;28;20058;-80
2022/06/21 02:54:44;;;;;;;11.05;2.25;;;12.50;99.90;;;;;;12378310;28;20046;-81
2022/06/21 03:00:46;;;;;;;9.45;1.90;;;12.50;99.90;;;;;;12355139;28;20100;-80
2022/06/21 03:06:49;;;;;;;5.68;2.33;;;12.50;99.90;;;;;;12365084;28;20148;-81
2022/06/21 03:13:05;;;;;;;7.07;1.70;;;12.50;99.90;;;;;;12374759;28;20042;-80
2022/06/21 03:19:26;;;;;;;7.07;1.60;;;12.40;99.90;;;;;;12380196;28;20145;-80
2022/06/21 03:25:48;;;;;;;3.13;1.60;;;12.10;99.90;;;;;;12369245;28;20398;-81
2022/06/21 03:31:51;;;;;;;8.25;2.00;;;12.00;99.90;;;;;;12367764;28;20173;-80
2022/06/21 03:37:53;;;;;;;6.57;2.00;;;11.90;99.90;;;;;;12358028;28;20172;-81
2022/06/21 03:44:00;;;;;;;4.78;2.05;;;12.00;99.90;;;;;;12347536;28;20506;-80
2022/06/21 03:50:12;;;;;;;6.72;1.95;;;12.10;99.90;;;;;;12353986;28;20104;-80
2022/06/21 03:56:28;;;;;;;8.48;2.08;;;12.10;99.90;;;;;;12354934;28;20062;-81
2022/06/21 04:02:43;;;;;;;10.05;2.10;;;12.00;99.90;;;;;;12356129;28;20070;-81
2022/06/21 04:08:53;;;;;;;6.38;2.15;;;11.90;99.90;;;;;;12371577;28;20130;-80
2022/06/21 04:15:31;;;;;;;8.50;2.20;;;12.10;99.90;;;;;;12371701;28;20125;-80
2022/06/21 04:21:51;;;;;;;7.80;2.10;;;12.20;99.90;;;;;;12360953;28;20096;-80
2022/06/21 04:28:21;;;;;;;5.85;1.98;;;12.30;99.90;;;;;;12362221;28;20050;-81
2022/06/21 04:34:35;;;;;;;7.15;2.10;;;12.30;99.90;;;;;;12359584;28;20169;-80
2022/06/21 04:40:44;;;;;;;11.02;2.50;;;12.40;99.90;;;;;;12352006;28;20464;-81
2022/06/21 04:46:52;;;;;;;8.57;2.25;;;12.40;99.90;;;;;;12354061;28;20720;-80
2022/06/21 04:53:20;;;;;;;7.43;2.63;;;12.50;99.90;;;;;;12368048;28;20051;-81
2022/06/21 04:59:32;;;;;;;11.52;2.80;;;12.50;99.90;;;;;;12353854;28;20132;-81
2022/06/21 05:05:37;;;;;;;12.15;3.17;;;12.60;99.90;;;;;;12378944;28;20022;-80
2022/06/21 05:11:39;;;;;;;9.35;3.63;;;12.70;99.90;;;;;;12369243;28;20449;-80
2022/06/21 05:17:43;;;;;;;7.05;3.03;;;12.70;99.90;;;;;;12355519;28;20070;-81
2022/06/21 05:23:46;;;;;;;5.78;3.08;;;12.60;99.90;;;;;;12358894;28;20128;-80
2022/06/21 05:30:03;;;;;;;8.38;3.17;;;12.50;99.90;;;;;;12362485;28;20133;-80
2022/06/21 05:36:17;;;;;;;10.18;3.13;;;12.60;99.90;;;;;;12359945;28;20046;-80
2022/06/21 05:42:22;;;;;;;8.05;2.55;;;12.70;99.90;;;;;;12366633;28;20214;-79
2022/06/21 05:48:28;;;;;;;7.45;2.63;;;12.60;99.90;;;;;;12359417;28;20042;-81
2022/06/21 05:54:34;;;;;;;10.25;2.53;;;12.60;99.90;;;;;;12358781;28;20150;-81
2022/06/21 06:00:43;;;;;;;13.05;3.78;;;12.60;99.90;;;;;;12353873;28;20164;-81
2022/06/21 06:06:46;;;;;;;9.90;2.60;;;12.80;99.90;;;;;;12358879;28;20047;-81
2022/06/21 06:12:54;;;;;;;8.73;2.95;;;13.00;99.90;;;;;;12359422;28;20491;-80
2022/06/21 06:19:12;;;;;;;7.75;2.67;;;13.10;99.90;;;;;;12342897;28;20527;-81
2022/06/21 06:25:26;;;;;;;10.77;2.60;;;13.20;99.90;;;;;;12368522;28;20510;-81
2022/06/21 06:31:41;;;;;;;;;;;13.30;99.90;;;;;;12371071;28;20042;-81
2022/06/21 06:37:45;;;;;;;9.07;1.90;;;13.40;99.90;;;;;;12351223;28;19968;-80
2022/06/21 06:44:09;;;;;;;9.07;2.38;;;13.60;99.90;;;;;;12360549;28;20105;-81
2022/06/21 06:50:28;;;;;;;21.30;2.43;;;13.60;99.90;;;;;;12367508;28;20089;-81
2022/06/21 06:56:44;;;;;;;11.95;2.03;;;13.70;99.90;;;;;;12388897;28;20406;-81
2022/06/21 07:02:54;;;;;;;8.82;2.05;;;13.60;99.90;;;;;;12355912;28;20043;-81
2022/06/21 07:09:08;;;;;;;14.90;2.60;;;13.90;99.90;;;;;;12362008;28;20046;-82
2022/06/21 07:15:12;;;;;;;16.52;2.28;;;13.90;99.90;;;;;;12365230;28;20118;-81
2022/06/21 07:21:15;;;;;;;7.82;2.15;;;14.00;99.90;;;;;;12373930;28;20058;-80
2022/06/21 07:27:19;;;;;;;8.63;1.95;;;14.00;99.90;;;;;;12366768;28;20104;-80
2022/06/21 07:33:32;;;;;;;12.07;1.60;;;14.00;99.90;;;;;;12345523;28;20038;-81
2022/06/21 07:39:49;;;;;;;7.57;1.67;;;14.10;99.90;;;;;;12366621;28;20050;-80
2022/06/21 07:45:55;;;;;;;10.82;2.35;;;14.00;99.90;;;;;;12366308;28;20043;-81
2022/06/21 07:52:23;;;;;;;14.77;2.00;;;14.20;99.90;;;;;;12353949;28;20541;-80
2022/06/21 07:58:48;;;;;;;16.50;2.55;;;14.40;99.90;;;;;;12363682;28;20144;-80
2022/06/21 08:11:26;;;;;;;6.90;1.63;;;14.60;99.90;;;;;;12362290;28;20012;-81
2022/06/21 08:17:42;;;;;;;9.60;1.50;;;14.50;99.90;;;;;;12350778;28;20050;-81
2022/06/21 08:23:54;;;;;;;7.40;1.52;;;14.80;99.90;;;;;;12348174;28;20035;-81
2022/06/21 08:30:09;;;;;;;9.77;1.70;;;15.00;99.90;;;;;;12347635;28;20097;-80
2022/06/21 08:36:20;;;;;;;5.93;1.40;;;15.10;99.90;;;;;;12387172;28;20097;-79
2022/06/21 08:42:52;;;;;;;12.23;2.72;;;15.20;99.90;;;;;;12389443;28;20138;-82
2022/06/21 08:49:31;;;;;;;8.25;1.60;;;15.40;99.90;;;;;;12356073;28;20093;-80
2022/06/21 08:55:48;;;;;;;9.05;1.70;;;15.60;99.90;;;;;;12323469;28;20043;-82
2022/06/21 09:02:16;;;;;;;11.70;1.80;;;15.80;99.90;;;;;;12361851;28;20046;-81
2022/06/21 09:08:41;;;;;;;7.20;1.60;;;16.10;99.90;;;;;;12351545;28;20055;-82
2022/06/21 09:15:20;;;;;;;10.02;1.40;;;16.30;99.90;;;;;;12366249;28;20142;-81
2022/06/21 09:21:47;;;;;;;7.72;1.33;;;16.50;99.90;;;;;;12379782;28;20117;-82
2022/06/21 09:27:52;;;;;;;8.40;1.90;;;16.60;99.90;;;;;;12349369;28;20114;-80
2022/06/21 09:33:59;;;;;;;;;;;16.50;99.90;;;;;;12369345;28;20070;-81
2022/06/21 09:40:14;;;;;;;9.63;1.88;;;16.80;99.90;;;;;;12378956;28;20505;-82
2022/06/21 09:46:44;;;;;;;;;;;17.10;99.90;;;;;;12374206;28;20049;-80
2022/06/21 09:53:07;;;;;;;9.57;1.80;;;17.30;99.90;;;;;;12374802;28;20657;-82
2022/06/21 09:59:37;;;;;;;7.25;1.40;;;17.40;99.90;;;;;;12358638;28;20080;-82
2022/06/21 10:06:01;;;;;;;8.18;1.83;;;17.50;99.90;;;;;;12388399;28;20038;-81
2022/06/21 10:12:25;;;;;;;7.53;1.50;;;17.80;99.90;;;;;;12392024;28;20030;-80
2022/06/21 10:18:46;;;;;;;6.65;1.63;;;18.10;99.90;;;;;;12378940;28;20057;-81
2022/06/21 10:25:20;;;;;;;6.53;1.50;;;18.30;99.90;;;;;;12367742;28;20046;-82
2022/06/21 10:31:38;;;;;;;8.05;1.67;;;18.50;99.90;;;;;;12362739;28;20046;-82
2022/06/21 10:38:11;;;;;;;5.15;1.30;;;18.70;99.90;;;;;;12376795;28;20540;-81
2022/06/21 10:44:38;;;;;;;7.38;1.38;;;18.80;99.90;;;;;;12360715;28;20192;-82
2022/06/21 10:50:58;;;;;;;12.10;1.55;;;19.40;99.90;;;;;;12365566;28;20080;-82
2022/06/21 10:57:09;;;;;;;4.35;1.27;;;19.80;99.90;;;;;;12375041;28;20053;-82
2022/06/21 11:03:28;;;;;;;6.70;1.48;;;19.40;99.90;;;;;;12374325;28;20045;-82
2022/06/21 11:09:43;;;;;;;4.88;1.10;;;19.40;99.90;;;;;;12366232;28;20105;-82
2022/06/21 11:15:50;;;;;;;3.00;0.93;;;19.60;99.90;;;;;;12366930;28;20054;-81
2022/06/21 11:22:11;;;;;;;5.03;1.17;;;19.40;99.90;;;;;;12377243;28;20491;-82
2022/06/21 11:28:31;;;;;;;5.95;1.00;;;19.60;99.90;;;;;;12368437;28;20046;-82
2022/06/21 11:34:49;;;;;;;3.65;1.05;;;20.20;99.90;;;;;;12375524;28;20074;-83
2022/06/21 11:41:03;;;;;;;4.65;1.27;;;20.80;99.90;;;;;;12364923;28;20055;-82
2022/06/21 11:47:15;;;;;;;3.60;0.90;;;21.00;99.90;;;;;;12373928;28;20205;-83
2022/06/21 11:53:37;;;;;;;4.30;0.88;;;21.10;99.90;;;;;;12372377;28;20097;-82
2022/06/21 11:59:55;;;;;;;2.42;0.80;;;21.20;99.90;;;;;;12363758;28;20453;-83
2022/06/21 12:06:03;;;;;;;3.88;1.00;;;21.30;99.90;;;;;;12387623;28;20078;-83
2022/06/21 12:12:35;;;;;;;2.97;0.80;;;21.30;99.90;;;;;;12363134;28;20061;-81
2022/06/21 12:18:37;;;;;;;3.83;0.95;;;21.30;99.90;;;;;;12396837;28;20058;-82
2022/06/21 12:24:39;;;;;;;3.05;0.88;;;20.80;99.90;;;;;;12349581;28;20043;-82
2022/06/21 12:30:41;;;;;;;4.93;1.10;;;20.40;99.90;;;;;;12340670;28;20072;-82
2022/06/21 12:37:33;;;;;;;3.80;0.85;;;20.00;99.90;;;;;;12375322;28;20186;-81
2022/06/21 12:44:15;;;;;;;5.13;0.93;;;19.80;99.90;;;;;;12355847;28;20056;-81
2022/06/21 12:50:48;;;;;;;4.65;0.75;;;19.70;99.90;;;;;;12364592;28;20181;-80
2022/06/21 12:57:13;;;;;;;7.00;1.20;;;19.80;99.90;;;;;;12373154;28;20133;-81
2022/06/21 13:03:27;;;;;;;3.60;0.95;;;19.80;99.90;;;;;;12364915;28;20464;-82
2022/06/21 13:09:59;;;;;;;4.03;0.93;;;20.00;99.90;;;;;;12373904;28;20043;-82
2022/06/21 13:16:27;;;;;;;4.13;1.13;;;20.10;99.90;;;;;;12362577;28;20121;-82
2022/06/21 13:22:52;;;;;;;3.60;0.75;;;20.20;99.90;;;;;;12368185;28;20046;-82
2022/06/21 13:29:03;;;;;;;6.65;1.30;;;20.20;99.90;;;;;;12356069;28;20104;-81
2022/06/21 13:35:16;;;;;;;4.78;0.88;;;20.10;99.90;;;;;;12365380;28;20133;-82
2022/06/21 13:48:14;;;;;;;3.90;0.80;;;19.90;99.90;;;;;;12388186;28;20121;-83
2022/06/21 13:54:23;;;;;;;5.50;1.02;;;19.70;99.90;;;;;;12373153;28;20452;-81
2022/06/21 14:00:42;;;;;;;3.83;1.10;;;19.70;99.90;;;;;;12386716;28;20153;-81
2022/06/21 14:06:46;;;;;;;3.08;0.90;;;19.60;99.90;;;;;;12358664;28;20047;-83
2022/06/21 14:13:12;;;;;;;5.90;1.40;;;19.70;99.90;;;;;;12375878;28;20042;-82
2022/06/21 14:19:31;;;;;;;6.25;1.05;;;19.90;99.90;;;;;;12377597;28;20197;-82
2022/06/21 14:25:43;;;;;;;4.40;1.08;;;20.00;99.90;;;;;;12370233;28;20529;-81
2022/06/21 14:31:59;;;;;;;4.82;1.05;;;20.20;99.90;;;;;;12375605;28;20050;-83
2022/06/21 14:38:14;;;;;;;5.22;1.10;;;20.30;99.90;;;;;;12385249;28;20054;-81
2022/06/21 14:44:37;;;;;;;3.95;1.10;;;20.20;99.90;;;;;;12361550;28;20078;-83
2022/06/21 14:50:57;;;;;;;2.85;0.90;;;20.10;99.90;;;;;;12365837;28;20184;-83
2022/06/21 14:57:07;;;;;;;6.18;0.90;;;20.30;99.90;;;;;;12368500;28;20077;-81
2022/06/21 15:03:22;;;;;;;2.75;0.82;;;20.60;99.90;;;;;;12357377;28;20507;-82
2022/06/21 15:09:34;;;;;;;5.45;1.02;;;21.00;99.90;;;;;;12368583;28;20050;-82
2022/06/21 15:15:39;;;;;;;3.08;0.95;;;21.00;99.90;;;;;;12367117;28;20133;-81
2022/06/21 15:21:41;;;;;;;6.28;1.20;;;20.70;99.90;;;;;;12380569;28;20149;-82
2022/06/21 15:28:02;;;;;;;6.65;1.23;;;20.60;99.90;;;;;;12371597;28;20078;-83
2022/06/21 15:34:04;;;;;;;3.75;1.10;;;20.40;99.90;;;;;;12346572;28;20130;-83
2022/06/21 15:40:06;;;;;;;4.65;1.10;;;20.50;99.90;;;;;;12370453;28;20129;-83
2022/06/21 15:46:23;;;;;;;4.20;0.98;;;20.70;99.90;;;;;;12376317;28;20100;-82
2022/06/21 15:52:32;;;;;;;2.60;0.88;;;20.80;99.90;;;;;;12354771;28;20042;-83
2022/06/21 15:59:01;;;;;;;3.67;1.27;;;20.90;99.90;;;;;;12370349;28;20050;-82
2022/06/21 16:05:48;;;;;;;3.22;0.82;;;20.90;99.90;;;;;;12371363;28;20494;-84
2022/06/21 16:12:02;;;;;;;5.22;0.90;;;20.80;99.90;;;;;;12335083;28;20487;-84
2022/06/21 16:18:09;;;;;;;3.33;0.82;;;20.40;99.90;;;;;;12368068;28;20569;-83
2022/06/21 16:24:17;;;;;;;2.75;0.73;;;20.40;99.90;;;;;;12366944;28;20546;-82
2022/06/21 16:30:25;;;;;;;4.20;0.88;;;20.30;99.90;;;;;;12370740;28;20050;-82
2022/06/21 16:36:42;;;;;;;4.15;1.30;;;20.30;99.90;;;;;;12369984;28;20546;-83
2022/06/21 16:43:01;;;;;;;3.95;0.85;;;20.20;99.90;;;;;;12350152;28;20112;-81
2022/06/21 16:49:25;;;;;;;4.18;0.80;;;20.40;99.90;;;;;;12356360;28;20421;-81
2022/06/21 16:55:27;;;;;;;5.80;1.00;;;20.90;99.90;;;;;;12365384;28;20125;-81
2022/06/21 17:01:40;;;;;;;4.30;1.00;;;20.90;99.90;;;;;;12363438;28;20125;-81
2022/06/21 17:07:51;;;;;;;4.17;1.00;;;20.80;99.90;;;;;;12384993;28;20474;-82
2022/06/21 17:14:03;;;;;;;3.95;0.90;;;20.50;99.90;;;;;;12394275;28;20051;-82
2022/06/21 17:20:27;;;;;;;9.18;1.30;;;20.30;99.90;;;;;;12377942;28;20137;-82
2022/06/21 17:26:48;;;;;;;5.35;1.17;;;20.10;99.90;;;;;;12363155;28;20055;-83
2022/06/21 17:33:12;;;;;;;3.33;1.00;;;20.00;99.90;;;;;;12370115;28;20042;-82
2022/06/21 17:39:17;;;;;;;;;;;19.80;99.90;;;;;;12368314;28;20181;-83
2022/06/21 17:45:26;;;;;;;3.78;1.00;;;19.90;99.90;;;;;;12372899;28;19973;-81
2022/06/21 17:51:33;;;;;;;6.00;1.05;;;19.90;99.90;;;;;;12362295;28;20051;-82
2022/06/21 17:57:43;;;;;;;2.47;0.73;;;19.90;99.90;;;;;;12364571;28;20042;-81
2022/06/21 18:04:19;;;;;;;4.85;0.90;;;20.30;99.90;;;;;;12361877;28;20116;-82
2022/06/21 18:10:51;;;;;;;5.38;1.48;;;21.00;99.90;;;;;;12373825;28;20178;-81
2022/06/21 18:17:13;;;;;;;2.92;0.90;;;21.20;99.90;;;;;;12364684;28;20062;-82
2022/06/21 18:23:27;;;;;;;3.83;1.00;;;21.10;99.90;;;;;;12352292;28;20089;-81
2022/06/21 18:30:00;;;;;;;3.92;0.88;;;21.00;99.90;;;;;;12366426;28;20051;-82
2022/06/21 18:36:33;;;;;;;5.00;1.20;;;20.70;99.90;;;;;;12366693;28;20172;-81
2022/06/21 18:43:04;;;;;;;5.97;0.93;;;20.40;99.90;;;;;;12367362;28;20557;-82
2022/06/21 18:49:26;;;;;;;4.72;1.25;;;20.20;99.90;;;;;;12359025;28;20417;-81
2022/06/21 18:55:46;;;;;;;5.35;1.30;;;20.00;99.90;;;;;;12355521;28;20068;-82
2022/06/21 19:02:03;;;;;;;5.40;1.15;;;19.70;99.90;;;;;;12377205;28;20503;-82
2022/06/21 19:08:37;;;;;;;2.88;1.02;;;19.40;99.90;;;;;;12355650;28;20104;-81
2022/06/21 19:15:18;;;;;;;3.38;1.10;;;19.20;99.90;;;;;;12356853;28;20137;-81
2022/06/21 19:21:41;;;;;;;8.30;1.20;;;19.10;99.90;;;;;;12372386;28;20129;-81
2022/06/21 19:28:18;;;;;;;5.28;1.20;;;19.00;99.90;;;;;;12350398;28;20104;-82
2022/06/21 19:34:50;;;;;;;4.53;1.10;;;19.00;99.90;;;;;;12352547;28;20054;-82
2022/06/21 19:41:18;;;;;;;3.15;1.08;;;18.80;99.90;;;;;;12365701;28;20092;-81
2022/06/21 19:47:35;;;;;;;5.63;1.08;;;18.60;99.90;;;;;;12363946;28;20038;-81
2022/06/21 19:53:37;;;;;;;4.00;1.00;;;18.60;99.90;;;;;;12359414;28;20089;-81
2022/06/21 19:59:39;;;;;;;6.93;1.17;;;18.50;99.90;;;;;;12370489;28;20331;-80
2022/06/21 20:06:03;;;;;;;4.43;1.13;;;18.30;99.90;;;;;;12355911;28;20085;-82
2022/06/21 20:12:21;;;;;;;5.00;1.30;;;18.20;99.90;;;;;;12351877;28;20101;-80
2022/06/21 20:18:39;;;;;;;4.03;1.20;;;17.40;99.90;;;;;;12381744;28;20130;-81
2022/06/21 20:24:53;;;;;;;4.18;1.30;;;16.60;99.90;;;;;;12360211;28;20092;-81
2022/06/21 20:31:03;;;;;;;5.97;1.20;;;16.90;99.90;;;;;;12374915;28;20180;-80
2022/06/21 20:37:18;;;;;;;8.35;1.25;;;17.20;99.90;;;;;;12420027;28;20077;-81
2022/06/21 20:43:24;;;;;;;3.53;1.20;;;16.90;99.90;;;;;;12421408;28;20054;-81
2022/06/21 20:49:26;;;;;;;3.25;0.82;;;17.20;99.90;;;;;;12360098;28;20042;-80
2022/06/21 20:55:30;;;;;;;3.63;0.98;;;17.30;99.90;;;;;;12381844;28;20130;-81
2022/06/21 21:01:53;;;;;;;3.03;0.98;;;17.50;99.90;;;;;;12362079;28;20130;-81
2022/06/21 21:08:06;;;;;;;4.93;1.05;;;17.50;99.90;;;;;;12364476;28;20042;-81
2022/06/21 21:14:22;;;;;;;4.13;1.15;;;17.50;99.90;;;;;;12385262;28;20498;-81
2022/06/21 21:20:31;;;;;;;5.03;1.20;;;17.60;99.90;;;;;;12349782;28;20047;-81
2022/06/21 21:26:36;;;;;;;3.53;1.45;;;17.60;99.90;;;;;;12375392;28;20054;-80
2022/06/21 21:32:38;;;;;;;4.18;1.08;;;17.50;99.90;;;;;;12369013;28;20046;-80
2022/06/21 21:38:40;;;;;;;3.97;1.00;;;17.50;99.90;;;;;;12378941;28;20114;-81
2022/06/21 21:44:43;;;;;;;7.10;1.20;;;17.40;99.90;;;;;;12354953;28;20564;-80
2022/06/21 21:50:45;;;;;;;4.33;1.20;;;17.50;99.90;;;;;;12365724;28;20351;-80
2022/06/21 21:56:55;;;;;;;4.28;1.20;;;17.40;99.90;;;;;;12366010;28;20100;-80
2022/06/21 22:03:13;;;;;;;4.80;1.10;;;17.20;99.90;;;;;;12372483;28;20569;-81
2022/06/21 22:09:25;;;;;;;7.25;1.00;;;17.20;99.90;;;;;;12382673;28;20042;-80
2022/06/21 22:15:29;;;;;;;4.18;1.52;;;17.00;99.90;;;;;;12416607;28;20058;-81
2022/06/21 22:21:34;;;;;;;6.55;1.10;;;16.90;99.90;;;;;;12369184;28;20494;-80
2022/06/21 22:27:37;;;;;;;5.97;1.05;;;16.90;99.90;;;;;;12390006;28;20452;-81
2022/06/21 22:33:41;;;;;;;3.80;1.10;;;16.80;99.90;;;;;;12365633;28;20137;-80
2022/06/21 22:39:47;;;;;;;2.20;0.90;;;16.70;99.90;;;;;;12369939;28;20047;-80
2022/06/21 22:45:51;;;;;;;4.28;1.10;;;16.60;99.90;;;;;;12347365;28;20046;-81
2022/06/21 22:51:56;;;;;;;3.33;1.30;;;16.60;99.90;;;;;;12364747;28;20429;-80
2022/06/21 22:58:11;;;;;;;5.03;1.17;;;16.50;99.90;;;;;;12358977;28;20088;-80
2022/06/21 23:04:29;;;;;;;5.20;1.02;;;16.50;99.90;;;;;;12352247;28;20043;-81
2022/06/21 23:10:33;;;;;;;5.15;1.38;;;16.30;99.90;;;;;;12352614;28;20042;-80
2022/06/21 23:16:43;;;;;;;4.18;1.15;;;16.20;99.90;;;;;;12376333;28;20128;-81
2022/06/21 23:22:48;;;;;;;6.20;1.20;;;16.20;99.90;;;;;;12345919;28;20473;-80
2022/06/21 23:28:51;;;;;;;2.60;1.10;;;16.30;99.90;;;;;;12367979;28;20085;-81
2022/06/21 23:35:12;;;;;;;6.10;1.60;;;16.30;99.90;;;;;;12374389;28;20065;-80
2022/06/21 23:41:17;;;;;;;5.25;1.25;;;16.40;99.90;;;;;;12342933;28;20050;-80
2022/06/21 23:47:25;;;;;;;4.03;1.08;;;16.40;99.90;;;;;;12358250;28;20101;-80
2022/06/21 23:53:28;;;;;;;2.47;0.98;;;16.30;99.90;;;;;;12357529;28;20035;-80
2022/06/21 23:59:31;;;;;;;2.78;1.20;;;16.20;99.90;;;;;;12356901;28;20057;-80
